Latest Weather Observations for Cairns Racecourse

IDQ60801

Issued at 8:05 pm EST Sunday 23 November 2014 (issued every 30 minutes, with the page automatically refreshed every 10 minutes)

About weather observations | Map of weather stations | Latest weather observations for QLD | Other Formats
Station Details ID: 031222 Name: CAIRNS RACECOURSE Lat: -16.95 Lon: 145.75 Height: 4.1 m
Data from the previous 72 hours. | See also: Recent months for locations in Queensland
Date/Time
EST
Temp
°C
App
Temp
°C
Dew
Point
Rel
Hum
%
Delta-T
°C
Wind Press
QNH
hPa
Press
MSL
hPa
Rain
since 9 am
mm
Dir
 
Spd
km/h
Gust
km/h
Spd
kts
Gust
kts
23/08:00pm 26.7 29.5 21.5 73 3.5 S 9 13 5 7 - - 0.0
23/07:30pm 26.4 29.2 21.6 75 3.2 S 9 13 5 7 - - 0.0
23/07:00pm 26.6 29.1 21.8 75 3.2 SE 11 17 6 9 - - 0.0
23/06:30pm 27.1 28.8 21.6 72 3.7 SE 15 24 8 13 - - 0.0
23/06:00pm 27.9 28.9 21.0 66 4.6 ESE 17 26 9 14 - - 0.0
23/05:30pm 29.0 29.6 21.0 62 5.3 SE 19 26 10 14 - - 0.0
23/05:00pm 29.8 30.2 20.9 59 5.9 SE 20 26 11 14 - - 0.0
23/04:30pm 30.4 30.8 20.9 57 6.3 SE 20 26 11 14 - - 0.0
23/04:00pm 31.0 31.5 20.9 55 6.7 SE 19 28 10 15 - - 0.0
23/03:30pm 32.1 32.7 21.0 52 7.4 SE 19 26 10 14 - - 0.0
23/03:00pm 32.2 32.2 20.1 48 8.0 SE 20 28 11 15 - - 0.0
23/02:30pm 32.4 32.5 20.3 48 8.0 SE 20 28 11 15 - - 0.0
23/02:00pm 32.5 32.3 19.7 46 8.4 ESE 20 30 11 16 - - 0.0
23/01:30pm 32.9 32.3 19.7 45 8.7 SE 22 32 12 17 - - 0.0
23/01:00pm 33.1 33.5 20.9 48 8.2 SE 20 30 11 16 - - 0.0
23/12:30pm 33.2 33.5 19.7 45 8.9 ESE 17 22 9 12 - - 0.0
23/12:00pm 32.7 33.1 19.9 46 8.5 ESE 17 28 9 15 - - 0.0
23/11:30am 32.2 32.1 19.5 47 8.3 ESE 19 28 10 15 - - 0.0
23/11:00am 32.4 32.9 20.0 48 8.2 E 17 26 9 14 - - 0.0
23/10:30am 31.8 33.2 20.4 51 7.6 SSE 13 20 7 11 - - 0.0
23/10:00am 30.9 31.5 21.1 56 6.6 ESE 19 26 10 14 - - 0.0
23/09:30am 30.5 32.2 21.0 57 6.3 ESE 13 19 7 10 - - 0.0
23/09:00am 29.6 31.7 21.0 60 5.7 SSE 11 17 6 9 - - 0.0
23/08:30am 28.4 30.0 20.7 63 5.1 SSE 13 19 7 10 - - 0.0
23/08:00am 27.1 30.1 21.2 70 3.9 ESE 7 11 4 6 - - 0.0
23/07:30am 25.4 27.7 20.6 75 3.1 S 9 13 5 7 - - 0.0
23/07:00am 23.4 26.3 21.1 87 1.5 S 7 11 4 6 - - 0.0
23/06:30am 22.1 24.8 20.2 89 1.2 S 6 9 3 5 - - 0.0
23/06:00am 21.6 23.9 19.9 90 1.1 S 7 11 4 6 - - 0.0
23/05:30am 21.4 23.8 19.7 90 1.1 S 6 7 3 4 - - 0.0
23/05:00am 21.7 24.2 19.8 89 1.2 SSE 6 9 3 5 - - 0.0
23/04:30am 21.9 24.0 20.2 90 1.1 SSE 9 13 5 7 - - 0.0
23/04:00am 22.1 25.0 20.6 91 1.0 SSE 6 11 3 6 - - 0.0
23/03:30am 21.4 25.1 19.9 91 1.0 CALM 0 0 0 0 - - 0.0
23/03:00am 22.4 25.9 20.3 88 1.4 ESE 2 7 1 4 - - 0.0
23/02:30am 22.7 25.3 20.4 87 1.5 S 7 11 4 6 - - 0.0
23/02:00am 23.1 25.8 20.6 86 1.6 ESE 7 9 4 5 - - 0.0
23/01:30am 23.9 26.2 20.6 82 2.2 SSE 9 11 5 6 - - 0.0
23/01:00am 24.2 27.1 21.1 83 2.0 SSE 7 11 4 6 - - 0.0
23/12:30am 23.7 27.0 20.8 84 1.9 S 4 7 2 4 - - 0.0
23/12:00am 24.4 27.6 21.3 83 2.0 ESE 6 7 3 4 - - 0.0
 
Date/Time
EST
Temp
°C
App
Temp
°C
Dew
Point
Rel
Hum
%
Delta-T
°C
Wind Press
QNH
hPa
Press
MSL
hPa
Rain
since 9 am
mm
Dir
 
Spd
km/h
Gust
km/h
Spd
kts
Gust
kts
22/11:30pm 24.5 28.8 21.2 82 2.2 CALM 0 7 0 4 - - 0.0
22/11:00pm 24.9 28.3 21.6 82 2.2 SSW 6 9 3 5 - - 0.0
22/10:30pm 24.8 28.1 21.5 82 2.2 SSW 6 9 3 5 - - 0.0
22/10:00pm 25.0 28.2 21.7 82 2.2 SSW 7 11 4 6 - - 0.0
22/09:30pm 25.2 28.1 21.7 81 2.3 SSW 9 13 5 7 - - 0.0
22/09:00pm 25.5 28.3 21.6 79 2.6 S 9 11 5 6 - - 0.0
22/08:30pm 25.7 29.6 21.8 79 2.6 SSE 4 7 2 4 - - 0.0
22/08:00pm 26.3 29.5 22.4 79 2.6 S 9 15 5 8 - - 0.0
22/07:30pm 26.3 29.4 22.2 78 2.8 SE 9 11 5 6 - - 0.0
22/07:00pm 26.6 29.5 21.8 75 3.2 ESE 9 13 5 7 - - 0.0
22/06:30pm 27.1 28.7 21.4 71 3.8 SE 15 20 8 11 - - 0.0
22/06:00pm 27.8 29.3 21.3 67 4.3 SE 15 24 8 13 - - 0.0
22/05:30pm 28.4 29.6 20.7 63 5.1 SE 15 22 8 12 - - 0.0
22/05:00pm 29.2 29.6 20.6 59 5.7 SE 19 24 10 13 - - 0.0
22/04:30pm 30.3 31.2 20.8 56 6.3 SE 17 22 9 12 - - 0.0
22/04:00pm 31.1 31.5 19.8 51 7.4 SE 17 26 9 14 - - 0.0
22/03:30pm 31.7 31.8 20.0 50 7.7 SE 19 28 10 15 - - 0.0
22/03:00pm 32.0 31.9 19.6 47 8.2 ESE 19 24 10 13 - - 0.0
22/02:30pm 32.6 33.4 19.8 46 8.5 ESE 15 24 8 13 - - 0.0
22/02:00pm 32.6 33.0 19.8 46 8.5 SE 17 26 9 14 - - 0.0
22/01:30pm 31.5 33.7 20.4 51 7.4 NNW 9 20 5 11 - - 0.0
22/01:00pm 32.4 33.9 20.6 49 7.9 N 13 24 7 13 - - 0.0
22/12:30pm 32.0 33.8 21.8 54 6.9 NE 15 22 8 12 - - 0.0
22/12:00pm 31.4 33.1 21.0 54 7.0 NNE 13 20 7 11 - - 0.0
22/11:30am 32.0 33.8 21.2 52 7.3 NE 13 24 7 13 - - 0.0
22/11:00am 30.9 33.2 19.9 52 7.2 ENE 7 15 4 8 - - 0.0
22/10:30am 31.9 34.0 20.2 50 7.8 SSE 9 17 5 9 - - 0.0
22/10:00am 30.3 32.3 19.9 53 6.8 S 9 17 5 9 - - 0.0
22/09:30am 30.7 32.8 20.9 56 6.5 S 11 26 6 14 - - 0.0
22/09:00am 29.4 31.6 20.5 58 5.9 SSE 9 15 5 8 - - 0.0
22/08:30am 27.2 29.4 20.5 67 4.4 S 9 13 5 7 - - 0.0
22/08:00am 25.5 28.0 21.0 76 3.0 S 9 13 5 7 - - 0.0
22/07:30am 23.8 26.4 20.5 82 2.1 SSE 7 9 4 5 - - 0.0
22/07:00am 23.0 25.4 20.1 84 1.9 S 7 9 4 5 - - 0.0
22/06:30am 22.3 24.8 20.2 88 1.4 S 7 13 4 7 - - 0.0
22/06:00am 21.3 23.6 19.9 92 0.9 S 7 9 4 5 - - 0.0
22/05:30am 21.0 23.2 19.6 92 0.9 S 7 9 4 5 - - 0.0
22/05:00am 21.3 23.6 19.8 91 1.0 SSE 7 9 4 5 - - 0.0
22/04:30am 21.6 23.9 19.9 90 1.1 S 7 11 4 6 - - 0.0
22/04:00am 22.0 24.5 20.3 90 1.1 S 7 9 4 5 - - 0.0
22/03:30am 21.4 25.0 19.7 90 1.1 CALM 0 0 0 0 - - 0.0
22/03:00am 22.0 25.1 20.3 90 1.1 SSE 4 7 2 4 - - 0.0
22/02:30am 21.8 25.6 20.1 90 1.1 CALM 0 0 0 0 - - 0.0
22/02:00am 21.8 25.7 20.4 92 0.9 CALM 0 0 0 0 - - 0.0
22/01:30am 22.6 26.9 21.1 91 1.0 CALM 0 0 0 0 - - 0.0
22/01:00am 22.6 26.8 20.9 90 1.1 CALM 0 0 0 0 - - 0.0
22/12:30am 21.8 25.2 19.4 86 1.5 CALM 0 0 0 0 - - 0.0
22/12:00am 22.4 26.3 20.3 88 1.4 CALM 0 0 0 0 - - 0.0
 
Date/Time
EST
Temp
°C
App
Temp
°C
Dew
Point
Rel
Hum
%
Delta-T
°C
Wind Press
QNH
hPa
Press
MSL
hPa
Rain
since 9 am
mm
Dir
 
Spd
km/h
Gust
km/h
Spd
kts
Gust
kts
21/11:30pm 22.7 26.4 20.0 85 1.7 CALM 0 0 0 0 - - 0.0
21/11:00pm 23.8 27.8 20.5 82 2.1 CALM 0 0 0 0 - - 0.0
21/10:30pm 24.7 27.5 20.8 79 2.6 SSE 7 11 4 6 - - 0.0
21/10:00pm 25.3 28.7 21.0 77 2.8 SE 4 7 2 4 - - 0.0
21/09:30pm 25.3 28.3 20.8 76 3.0 SSE 6 9 3 5 - - 0.0
21/09:00pm 26.0 29.0 20.8 73 3.4 SSE 6 9 3 5 - - 0.0
21/08:30pm 26.1 28.8 20.7 72 3.5 SSE 7 11 4 6 - - 0.0
21/08:00pm 26.5 29.4 20.6 70 3.9 ESE 6 7 3 4 - - 0.0
21/07:30pm 26.9 29.8 20.7 69 4.1 ESE 6 9 3 5 - - 0.0
21/07:00pm 26.9 29.6 20.7 69 4.1 ESE 7 11 4 6 - - 0.0
21/06:30pm 27.0 29.0 20.8 69 4.1 ESE 11 15 6 8 - - 0.0
21/06:00pm 27.5 29.1 20.8 67 4.4 ESE 13 20 7 11 - - 0.0
21/05:30pm 28.1 29.4 20.9 65 4.8 SE 15 22 8 12 - - 0.0
21/05:00pm 28.8 30.1 20.8 62 5.3 ESE 15 20 8 11 - - 0.0
21/04:30pm 29.6 30.8 21.5 61 5.4 SE 17 22 9 12 - - 0.0
21/04:00pm 29.6 30.4 20.7 58 5.9 SE 17 24 9 13 - - 0.0
21/03:30pm 31.5 32.7 21.4 55 6.8 SSE 17 20 9 11 - - 0.0
21/03:00pm 32.3 33.2 21.5 53 7.3 ESE 19 24 10 13 - - 0.0
21/02:30pm 32.3 33.5 21.5 53 7.3 ESE 17 22 9 12 - - 0.0
21/02:00pm 31.8 32.4 21.0 52 7.2 SE 19 28 10 15 - - 0.0
21/01:30pm 31.6 31.9 20.8 52 7.2 SE 20 32 11 17 - - 0.0
21/01:00pm 32.7 32.9 20.2 47 8.3 SE 19 26 10 14 - - 0.0
21/12:30pm 32.6 33.7 20.5 49 8.1 SE 15 24 8 13 - - 0.0
21/12:00pm 31.3 31.7 19.9 50 7.5 SE 17 26 9 14 - - 0.0
21/11:30am 32.9 35.1 20.4 47 8.3 E 9 19 5 10 - - 0.0
21/11:00am 30.2 33.0 20.4 55 6.5 NNE 6 15 3 8 - - 0.0
21/10:30am 31.2 32.8 19.9 51 7.4 SE 11 19 6 10 - - 0.0
21/10:00am 30.8 32.1 20.1 53 7.1 ESE 13 19 7 10 - - 0.0
21/09:30am 30.1 31.5 20.4 56 6.4 SSE 13 20 7 11 - - 0.0
21/09:00am 29.0 31.2 20.4 59 5.7 SE 9 17 5 9 - - 0.0
21/08:30am 28.3 31.0 20.6 63 5.1 SSE 7 13 4 7 - - 0.0
21/08:00am 27.9 29.9 20.7 65 4.8 S 11 17 6 9 - - 0.0
21/07:30am 26.7 29.3 21.2 72 3.6 SSE 9 13 5 7 - - 0.0
21/07:00am 26.1 29.8 22.2 79 2.6 E 6 7 3 4 - - 0.0
21/06:30am 24.3 29.4 22.6 90 1.1 CALM 0 0 0 0 - - 0.0
21/06:00am 21.8 25.8 20.6 93 0.8 CALM 0 0 0 0 - - 0.0
21/05:30am 21.7 25.5 20.2 91 1.0 CALM 0 0 0 0 - - 0.0
21/05:00am 22.6 26.9 21.1 91 1.0 CALM 0 0 0 0 - - 0.0
21/04:30am 22.9 27.1 21.0 89 1.2 CALM 0 0 0 0 - - 0.0
21/04:00am 23.3 27.8 21.6 90 1.1 CALM 0 0 0 0 - - 0.0
21/03:30am 22.9 27.2 21.2 90 1.1 CALM 0 0 0 0 - - 0.0
21/03:00am 23.3 27.8 21.6 90 1.1 CALM 0 0 0 0 - - 0.0
21/02:30am 23.1 27.1 20.6 86 1.6 CALM 0 0 0 0 - - 0.0
21/02:00am 23.6 28.0 21.3 87 1.5 CALM 0 7 0 4 - - 0.0
21/01:30am 23.6 28.0 21.3 87 1.5 CALM 0 0 0 0 - - 0.0
21/01:00am 23.9 28.1 21.0 84 1.9 CALM 0 0 0 0 - - 0.0
21/12:30am 25.0 29.4 21.3 80 2.4 CALM 0 0 0 0 - - 0.0
21/12:00am 25.7 28.5 21.6 78 2.7 SSE 9 13 5 7 - - 0.0
 
Date/Time
EST
Temp
°C
App
Temp
°C
Dew
Point
Rel
Hum
%
Delta-T
°C
Wind Press
QNH
hPa
Press
MSL
hPa
Rain
since 9 am
mm
Dir
 
Spd
km/h
Gust
km/h
Spd
kts
Gust
kts
20/11:30pm 25.8 29.0 21.7 78 2.7 S 7 9 4 5 - - 0.0
20/11:00pm 25.7 29.1 21.6 78 2.7 S 6 7 3 4 - - 0.0
20/10:30pm 25.9 29.1 21.6 77 2.9 S 7 9 4 5 - - 0.0
20/10:00pm 26.3 31.1 22.2 78 2.8 CALM 0 0 0 0 - - 0.0
20/09:30pm 26.4 30.0 22.0 77 2.9 SSE 6 9 3 5 - - 0.0
20/09:00pm 26.3 29.2 21.7 76 3.1 S 9 11 5 6 - - 0.0
20/08:30pm 26.4 29.8 21.6 75 3.2 S 6 9 3 5 - - 0.0

Other Formats:

Comma delimited format used in spreadsheet applications
http://www.bom.gov.au/fwo/IDQ60801/IDQ60801.94288.axf

JavaScript Object Notation format (JSON) in row-major order
http://www.bom.gov.au/fwo/IDQ60801/IDQ60801.94288.json